Time;durP1;ratioP1;P1;durP2;ratioP2;P2;SDS_P1;SDS_P2;PMS_P1;PMS_P2;Temp;Humidity;BMP_temperature;BMP_pressure;BME280_temperature;BME280_humidity;BME280_pressure;Samples;Min_cycle;Max_cycle;Signal;HPM_P1;HPM_P2
2021/05/06 00:07:57;;;;;;;2.90;1.93;;;;;;;5.64;88.69;152809.16;5109205;28;20434;-76
2021/05/06 00:31:15;;;;;;;3.43;2.33;;;;;;;5.74;91.56;152834.94;5070798;28;20476;-76
2021/05/06 00:33:50;;;;;;;3.93;2.33;;;;;;;5.72;92.84;152829.78;5071267;28;20538;-76
2021/05/06 00:36:26;;;;;;;2.50;1.67;;;;;;;5.64;92.62;152810.41;5055977;28;20420;-76
2021/05/06 00:39:04;;;;;;;1.87;1.67;;;;;;;5.63;92.46;152806.56;5055906;28;20440;-76
2021/05/06 00:41:48;;;;;;;2.37;1.90;;;;;;;5.64;92.05;152809.16;5085654;28;20451;-76
2021/05/06 01:05:19;;;;;;;2.93;2.43;;;;;;;5.49;93.05;152771.72;4967314;28;20454;-76
2021/05/06 01:08:06;;;;;;;2.83;2.33;;;;;;;5.48;95.59;152769.19;4996867;28;20844;-76
2021/05/06 01:13:43;;;;;;;3.00;2.20;;;;;;;5.54;94.70;152784.63;5054298;28;20889;-76
2021/05/06 01:16:18;;;;;;;6.00;1.93;;;;;;;5.50;94.41;152775.63;5055060;28;20458;-76
2021/05/06 01:18:54;;;;;;;2.73;2.53;;;;;;;5.50;95.07;152774.31;5100230;28;20454;-76
2021/05/06 01:21:30;;;;;;;4.50;2.50;;;;;;;5.50;94.50;152775.63;5058029;28;20443;-76
2021/05/06 01:24:06;;;;;;;3.77;2.60;;;;;;;5.50;94.12;152774.31;5062586;28;20958;-76
2021/05/06 01:26:49;;;;;;;4.73;2.43;;;;;;;5.48;93.29;152769.19;5053220;28;20447;-77
2021/05/06 01:29:28;;;;;;;5.00;2.87;;;;;;;5.47;95.00;152767.88;5054286;28;20454;-76
2021/05/06 01:32:13;;;;;;;2.40;2.20;;;;;;;5.48;95.63;152769.19;5053834;28;20447;-76
2021/05/06 01:34:53;;;;;;;3.07;2.40;;;;;;;5.44;94.21;152758.84;5057095;28;20615;-76
2021/05/06 01:37:34;;;;;;;2.83;2.20;;;;;;;5.45;93.79;152761.44;5046228;28;20446;-76
2021/05/06 01:40:34;;;;;;;2.57;2.20;;;;;;;5.45;94.67;152762.69;5091148;28;20470;-76
2021/05/06 01:43:16;;;;;;;3.03;2.50;;;;;;;5.46;93.88;152765.28;5096232;28;20557;-76
2021/05/06 01:46:10;;;;;;;2.03;1.73;;;;;;;5.49;93.81;152771.72;5053231;28;20519;-76
2021/05/06 01:57:42;;;;;;;3.30;2.20;;;;;;;5.46;94.42;152765.28;5090721;28;20793;-76
2021/05/06 02:00:29;;;;;;;2.50;2.30;;;;;;;5.48;92.80;152769.19;5057370;28;20447;-76
2021/05/06 02:03:12;;;;;;;2.60;2.40;;;;;;;5.50;93.13;152775.63;5073271;28;20439;-76
2021/05/06 02:05:48;;;;;;;4.10;2.40;;;;;;;5.50;94.43;152775.63;5088027;28;20439;-76
2021/05/06 02:08:24;;;;;;;3.23;2.10;;;;;;;5.50;92.87;152774.31;5052999;28;20541;-76
2021/05/06 02:11:04;;;;;;;4.33;2.80;;;;;;;5.50;93.12;152775.63;5038526;28;20468;-76
2021/05/06 02:14:07;;;;;;;2.80;2.27;;;;;;;5.54;93.45;152785.91;5106406;28;20486;-76
2021/05/06 02:16:48;;;;;;;2.30;2.00;;;;;;;5.55;92.67;152787.22;5090495;28;21004;-77
2021/05/06 02:19:28;;;;;;;2.23;2.00;;;;;;;5.49;93.72;152771.72;5106747;28;20542;-76
2021/05/06 02:22:05;;;;;;;3.27;2.00;;;;;;;5.56;93.55;152789.75;5072513;28;20867;-76
2021/05/06 02:24:40;;;;;;;3.00;2.50;;;;;;;5.54;93.38;152785.91;5073719;28;20447;-76
2021/05/06 02:27:17;;;;;;;3.23;2.53;;;;;;;5.52;91.39;152779.47;5052815;28;20479;-76
2021/05/06 02:29:52;;;;;;;4.30;2.30;;;;;;;5.52;92.34;152779.47;5068453;28;20961;-76
2021/05/06 02:32:28;;;;;;;2.90;2.40;;;;;;;5.50;93.35;152774.31;5059834;28;20428;-76
2021/05/06 02:35:04;;;;;;;2.83;2.10;;;;;;;5.47;92.61;152767.88;5105780;28;20944;-75
2021/05/06 02:37:39;;;;;;;2.90;2.20;;;;;;;5.51;93.74;152776.88;5106060;28;20450;-76
2021/05/06 02:40:14;;;;;;;4.43;2.53;;;;;;;5.51;93.74;152776.88;5072227;28;20830;-76
2021/05/06 02:42:50;;;;;;;2.73;2.20;;;;;;;5.51;92.78;152778.19;5081526;28;20929;-76
2021/05/06 02:45:25;;;;;;;2.37;2.07;;;;;;;5.52;93.46;152780.78;5075717;28;20653;-76
2021/05/06 02:48:01;;;;;;;3.50;2.60;;;;;;;5.49;94.68;152771.72;5070763;28;20467;-76
2021/05/06 02:50:36;;;;;;;3.60;2.40;;;;;;;5.48;93.27;152769.19;5052303;28;20554;-77
2021/05/06 02:53:13;;;;;;;3.43;2.90;;;;;;;5.49;95.04;152773.03;5056545;28;20438;-76
2021/05/06 02:55:56;;;;;;;4.43;2.20;;;;;;;5.50;93.67;152774.31;5056715;28;20447;-76
2021/05/06 02:58:45;;;;;;;3.67;3.37;;;;;;;5.50;94.93;152775.63;5106000;28;20442;-76
2021/05/06 03:04:14;;;;;;;2.77;2.40;;;;;;;5.50;94.20;152775.63;5072406;28;20447;-76
2021/05/06 03:06:52;;;;;;;5.27;2.77;;;;;;;5.47;94.00;152766.59;5105698;28;20848;-76
2021/05/06 03:09:36;;;;;;;3.53;2.80;;;;;;;5.50;96.78;152774.31;5073689;28;20819;-76
2021/05/06 03:12:23;;;;;;;2.80;2.43;;;;;;;5.49;95.79;152771.72;5105184;28;20442;-76
2021/05/06 03:20:53;;;;;;;3.87;2.83;;;;;;;5.48;95.76;152770.44;5105913;28;20785;-76
2021/05/06 03:21:25;;;;;;;2.60;2.40;;;;;;;5.51;97.57;152778.19;5105452;28;20838;-76
2021/05/06 03:24:01;;;;;;;3.23;2.67;;;;;;;5.52;95.61;152779.47;5047110;28;20533;-77
2021/05/06 03:26:36;;;;;;;3.80;2.70;;;;;;;5.55;97.03;152787.22;5067323;28;20415;-77
2021/05/06 03:29:13;;;;;;;4.37;2.50;;;;;;;5.52;96.67;152779.47;5071906;28;20436;-76
2021/05/06 03:32:02;;;;;;;4.07;2.37;;;;;;;5.41;96.26;152752.41;5089114;28;20462;-76
2021/05/06 03:34:47;;;;;;;3.03;2.40;;;;;;;5.45;98.41;152761.44;5105524;28;20817;-76
2021/05/06 03:43:21;;;;;;;3.00;2.50;;;;;;;5.22;100.00;152702.09;5093903;28;20459;-76
2021/05/06 04:03:36;;;;;;;2.80;2.13;;;;;;;5.07;100.00;152663.44;5070762;28;20546;-90
2021/05/06 04:12:27;;;;;;;2.70;2.00;;;;;;;5.03;100.00;152653.16;5069099;28;20424;-92
2021/05/06 04:15:21;;;;;;;2.40;2.20;;;;;;;5.01;100.00;152647.97;5052476;28;20923;-93
2021/05/06 04:18:03;;;;;;;3.97;2.70;;;;;;;4.99;100.00;152642.81;5060854;28;20613;-92
2021/05/06 04:26:32;;;;;;;3.73;2.60;;;;;;;4.96;100.00;152635.06;5087134;28;20453;-90
2021/05/06 04:37:55;;;;;;;4.43;3.40;;;;;;;4.97;100.00;152637.69;5015631;28;20459;-92
2021/05/06 04:40:40;;;;;;;5.83;3.00;;;;;;;5.01;100.00;152647.97;5034239;28;20444;-91
2021/05/06 04:46:39;;;;;;;3.00;2.70;;;;;;;5.04;100.00;152655.69;5129873;28;20444;-91
2021/05/06 04:55:08;;;;;;;3.10;2.80;;;;;;;5.23;100.00;152706.00;5076376;28;20417;-92
2021/05/06 04:58:02;;;;;;;5.33;3.60;;;;;;;5.31;100.00;152725.31;5108851;28;20431;-92
2021/05/06 05:03:49;;;;;;;8.77;4.00;;;;;;;5.59;100.00;152797.50;5095590;28;20451;-91
2021/05/06 05:06:26;;;;;;;6.33;4.53;;;;;;;5.67;100.00;152816.84;5108922;28;20438;-92
2021/05/06 05:09:13;;;;;;;4.23;3.20;;;;;;;5.77;100.00;152842.69;5059685;28;20451;-91
2021/05/06 05:11:52;;;;;;;5.60;3.57;;;;;;;5.85;100.00;152864.63;5084188;28;20462;-92
2021/05/06 05:14:37;;;;;;;4.77;2.70;;;;;;;5.96;100.00;152893.00;5095322;28;20457;-91
2021/05/06 05:20:10;;;;;;;4.17;3.30;;;;;;;6.00;100.00;152903.34;5073767;28;20432;-91
2021/05/06 05:25:40;;;;;;;3.93;3.43;;;;;;;6.04;100.00;152913.63;5051731;28;20999;-91
2021/05/06 05:28:15;;;;;;;3.40;3.10;;;;;;;6.08;100.00;152922.69;5069473;28;20476;-92
2021/05/06 05:30:52;;;;;;;4.67;3.83;;;;;;;6.08;100.00;152923.97;5052441;28;20510;-90
2021/05/06 05:33:29;;;;;;;4.67;4.20;;;;;;;6.09;100.00;152926.53;5069342;28;20444;-90
2021/05/06 05:36:14;;;;;;;5.73;4.43;;;;;;;6.07;100.00;152921.38;5105507;28;20453;-90
2021/05/06 05:38:56;;;;;;;8.47;4.30;;;;;;;6.10;100.00;152929.13;5074381;28;20448;-92
2021/05/06 05:41:57;;;;;;;4.10;3.70;;;;;;;6.13;100.00;152936.88;5105662;28;20436;-92
2021/05/06 05:56:24;;;;;;;3.67;3.30;;;;;;;6.23;100.00;152961.38;5094755;28;20834;-92
2021/05/06 05:58:59;;;;;;;4.07;3.30;;;;;;;6.24;100.00;152962.66;5072390;28;20456;-93
2021/05/06 06:01:34;;;;;;;3.87;3.47;;;;;;;6.22;100.00;152957.53;5073760;28;20445;-92
2021/05/06 06:04:11;;;;;;;4.10;3.67;;;;;;;6.17;100.00;152945.88;5091332;28;20546;-92
2021/05/06 06:06:46;;;;;;;4.53;3.23;;;;;;;6.17;100.00;152944.63;5075015;28;20488;-92
2021/05/06 06:09:21;;;;;;;7.87;3.57;;;;;;;6.12;100.00;152934.28;5067586;28;20468;-91
2021/05/06 06:11:57;;;;;;;4.47;3.80;;;;;;;6.10;100.00;152929.13;5102326;28;20479;-91
2021/05/06 06:14:38;;;;;;;5.40;3.20;;;;;;;6.16;100.00;152943.31;5072941;28;20448;-90
2021/05/06 06:17:13;;;;;;;5.33;2.90;;;;;;;6.17;100.00;152944.63;5073381;28;20439;-89
2021/05/06 06:20:00;;;;;;;4.13;3.30;;;;;;;6.20;100.00;152952.31;5071841;28;20475;-90
2021/05/06 06:22:35;;;;;;;5.97;3.43;;;;;;;6.22;98.84;152957.53;5057234;28;20927;-90
2021/05/06 06:25:11;;;;;;;3.67;2.80;;;;;;;6.21;98.68;152954.94;5053782;28;20761;-87
2021/05/06 06:27:46;;;;;;;2.90;2.47;;;;;;;6.23;98.92;152960.06;5067686;28;20985;-89
2021/05/06 06:30:22;;;;;;;3.73;3.10;;;;;;;6.25;99.47;152965.28;5076131;28;20469;-90
2021/05/06 06:32:57;;;;;;;3.60;2.40;;;;;;;6.21;98.30;152954.94;5052689;28;20873;-89
2021/05/06 06:35:34;;;;;;;3.77;2.63;;;;;;;6.21;98.77;152954.94;5068980;28;20474;-90
2021/05/06 06:38:10;;;;;;;4.70;2.40;;;;;;;6.21;99.55;152954.94;5069260;28;20452;-89
2021/05/06 06:40:44;;;;;;;2.97;2.23;;;;;;;6.20;98.64;152952.31;5073491;28;20428;-89
2021/05/06 06:43:19;;;;;;;3.73;2.63;;;;;;;6.22;98.10;152957.53;5106060;28;20448;-91
2021/05/06 06:45:55;;;;;;;6.60;3.13;;;;;;;6.28;98.28;152974.28;5073421;28;20439;-91
2021/05/06 06:48:30;;;;;;;4.50;3.30;;;;;;;6.32;98.57;152983.31;5090418;28;20447;-89
2021/05/06 06:51:06;;;;;;;4.80;2.90;;;;;;;6.29;98.56;152975.56;5072465;28;20467;-89
2021/05/06 06:53:41;;;;;;;6.50;2.80;;;;;;;6.31;98.04;152980.72;5104912;28;20451;-89
2021/05/06 06:56:16;;;;;;;5.30;2.90;;;;;;;6.32;98.88;152984.63;5072436;28;20922;-87
2021/05/06 06:58:52;;;;;;;5.70;3.10;;;;;;;6.35;98.96;152991.06;5105616;28;20467;-89
2021/05/06 07:01:27;;;;;;;5.10;3.17;;;;;;;6.35;98.89;152991.06;5106234;28;20470;-89
2021/05/06 07:04:03;;;;;;;3.90;2.60;;;;;;;6.42;99.39;153009.13;5105642;28;20454;-89
2021/05/06 07:06:39;;;;;;;4.43;2.80;;;;;;;6.41;98.17;153006.53;5106277;28;20428;-90
2021/05/06 07:09:15;;;;;;;3.80;2.60;;;;;;;6.45;97.58;153016.88;5071622;28;20450;-89
2021/05/06 07:11:50;;;;;;;3.90;3.00;;;;;;;6.46;98.54;153020.72;5113552;27;20474;-89
2021/05/06 07:14:28;;;;;;;4.07;2.90;;;;;;;6.50;98.72;153029.75;5091968;28;20466;-89
2021/05/06 07:17:03;;;;;;;5.10;3.17;;;;;;;6.54;96.13;153040.13;5087528;28;20852;-89
2021/05/06 07:19:38;;;;;;;3.77;2.90;;;;;;;6.57;97.19;153049.13;5056321;28;20816;-89
2021/05/06 07:22:14;;;;;;;3.53;3.17;;;;;;;6.59;95.36;153054.28;5089557;28;20460;-89
2021/05/06 07:24:49;;;;;;;3.80;2.73;;;;;;;6.61;96.06;153058.16;5056645;28;20471;-87
2021/05/06 07:27:24;;;;;;;3.40;3.10;;;;;;;6.70;95.36;153081.38;5079728;28;20462;-89
2021/05/06 07:29:59;;;;;;;3.90;2.53;;;;;;;6.75;95.72;153094.31;5072892;28;20450;-88
2021/05/06 07:32:36;;;;;;;4.70;2.80;;;;;;;6.77;94.52;153099.47;5079455;28;20877;-89
2021/05/06 07:35:11;;;;;;;3.43;2.20;;;;;;;6.82;94.56;153111.06;5073120;28;20475;-88
2021/05/06 07:37:47;;;;;;;2.73;2.53;;;;;;;6.84;94.96;153117.53;5105379;28;20440;-89
2021/05/06 07:40:23;;;;;;;4.87;3.10;;;;;;;6.87;96.17;153125.28;5072340;28;20447;-88
2021/05/06 07:42:57;;;;;;;4.40;3.37;;;;;;;6.94;95.37;153142.03;5105812;28;20506;-88
2021/05/06 07:45:33;;;;;;;3.40;2.27;;;;;;;7.00;94.05;153158.84;5073060;28;20896;-85
2021/05/06 07:48:08;;;;;;;3.90;2.83;;;;;;;7.10;94.54;153184.66;5071663;28;20429;-86
2021/05/06 07:50:43;;;;;;;2.87;2.50;;;;;;;7.25;92.79;153223.38;5066601;28;20518;-89
2021/05/06 07:53:24;;;;;;;3.60;2.73;;;;;;;7.32;94.38;153241.47;5070646;28;20448;-89
2021/05/06 07:55:59;;;;;;;7.53;3.60;;;;;;;7.43;91.34;153267.31;5071112;28;20539;-88
2021/05/06 07:58:34;;;;;;;3.93;2.67;;;;;;;7.63;92.14;153320.25;5071558;28;20444;-87
2021/05/06 08:01:09;;;;;;;4.50;3.30;;;;;;;7.64;91.70;153322.84;5072469;28;20471;-88
2021/05/06 08:03:45;;;;;;;2.50;2.23;;;;;;;7.76;89.52;153353.84;5088695;28;20451;-86
2021/05/06 08:06:20;;;;;;;3.03;2.73;;;;;;;7.86;88.11;153378.41;5055473;28;20453;-87
2021/05/06 08:08:56;;;;;;;4.70;3.10;;;;;;;7.90;90.99;153390.03;5104279;28;20531;-88
2021/05/06 08:11:32;;;;;;;5.73;2.63;;;;;;;7.91;89.17;153391.31;5104858;28;20532;-86
2021/05/06 08:14:07;;;;;;;3.40;2.53;;;;;;;7.92;89.35;153395.19;5070911;28;20460;-88
2021/05/06 08:16:42;;;;;;;4.07;2.73;;;;;;;7.96;87.38;153404.22;5104608;28;20446;-87
2021/05/06 08:19:17;;;;;;;4.17;3.30;;;;;;;7.97;88.76;153406.78;5072160;28;20429;-87
2021/05/06 08:21:52;;;;;;;3.43;2.80;;;;;;;8.04;89.79;153423.63;5072294;28;20437;-88
2021/05/06 08:24:28;;;;;;;3.10;2.30;;;;;;;8.06;89.14;153430.06;5072634;28;20434;-86
2021/05/06 08:27:03;;;;;;;4.27;2.60;;;;;;;8.08;89.06;153433.94;5070984;28;20473;-87
2021/05/06 08:29:38;;;;;;;3.53;2.60;;;;;;;8.08;87.88;153435.22;5073135;28;20435;-88
2021/05/06 08:32:13;;;;;;;4.83;3.07;;;;;;;8.13;87.49;153446.88;5075898;28;20612;-88
2021/05/06 08:34:49;;;;;;;5.43;2.50;;;;;;;8.15;87.67;153453.34;5074717;28;20529;-89
2021/05/06 08:37:24;;;;;;;3.33;2.40;;;;;;;8.18;88.37;153461.06;5108315;28;20438;-87
2021/05/06 08:40:01;;;;;;;3.13;2.83;;;;;;;8.21;87.98;153467.50;5108890;28;20454;-87
2021/05/06 08:42:36;;;;;;;4.27;2.67;;;;;;;8.24;87.39;153475.28;5075469;28;20533;-88
2021/05/06 08:45:13;;;;;;;4.10;3.10;;;;;;;8.29;85.26;153488.25;5059120;28;20458;-89
2021/05/06 08:47:49;;;;;;;3.63;2.67;;;;;;;8.34;87.35;153502.47;5108509;28;20446;-90
2021/05/06 08:50:23;;;;;;;3.43;2.10;;;;;;;8.36;86.27;153506.38;5108480;28;20474;-90
2021/05/06 08:52:59;;;;;;;3.47;2.07;;;;;;;8.37;85.09;153510.22;5061718;28;20955;-90
2021/05/06 08:55:35;;;;;;;4.00;2.10;;;;;;;8.40;85.55;153516.69;5077341;28;20462;-90
2021/05/06 08:58:10;;;;;;;3.90;2.33;;;;;;;8.44;87.36;153528.34;5074913;28;20457;-90
2021/05/06 09:00:45;;;;;;;4.27;3.03;;;;;;;8.41;84.33;153519.28;5059458;28;20472;-87
2021/05/06 09:03:21;;;;;;;3.80;2.30;;;;;;;8.40;84.83;153518.00;5091002;28;20446;-90
2021/05/06 09:06:13;;;;;;;4.60;2.90;;;;;;;8.42;85.21;153521.84;5074229;28;20569;-90
2021/05/06 09:08:52;;;;;;;5.03;2.30;;;;;;;8.40;86.31;153518.00;5108050;28;20921;-90
2021/05/06 09:11:29;;;;;;;5.83;2.93;;;;;;;8.37;88.03;153510.22;5071013;28;20541;-90
2021/05/06 09:14:05;;;;;;;3.77;2.63;;;;;;;8.35;88.40;153503.78;5065263;28;20619;-90
2021/05/06 09:16:42;;;;;;;5.10;2.33;;;;;;;8.31;87.14;153494.72;5043233;28;20545;-89
2021/05/06 09:19:19;;;;;;;5.43;3.30;;;;;;;8.29;84.63;153489.56;5106507;28;20862;-90
2021/05/06 09:21:55;;;;;;;6.50;3.30;;;;;;;8.26;83.27;153481.75;5067174;28;20455;-90
2021/05/06 09:24:35;;;;;;;3.27;2.60;;;;;;;8.29;87.76;153489.56;5096293;28;20434;-89
2021/05/06 09:27:11;;;;;;;5.27;3.07;;;;;;;8.25;90.55;153479.19;5054440;28;20852;-90
2021/05/06 09:29:48;;;;;;;6.53;3.30;;;;;;;8.24;88.93;153476.59;5070548;28;20454;-90
2021/05/06 09:32:23;;;;;;;3.30;2.67;;;;;;;8.21;88.42;153468.81;5062194;28;20478;-91
2021/05/06 09:34:58;;;;;;;6.50;3.60;;;;;;;8.19;87.98;153463.66;5065195;28;20451;-89
2021/05/06 09:37:38;;;;;;;4.80;3.20;;;;;;;8.16;88.30;153455.91;5091620;28;20563;-90
2021/05/06 09:40:18;;;;;;;4.40;3.00;;;;;;;8.17;89.39;153458.50;5110314;27;20434;-91
2021/05/06 09:42:55;;;;;;;5.47;2.80;;;;;;;8.15;88.19;153453.34;5054258;28;20946;-92
2021/05/06 09:45:30;;;;;;;6.00;3.20;;;;;;;8.13;89.45;153448.13;5071625;28;20485;-93
2021/05/06 09:48:09;;;;;;;2.90;2.70;;;;;;;8.15;91.01;153453.34;5076876;28;20441;-94
2021/05/06 09:50:47;;;;;;;4.07;2.60;;;;;;;8.10;90.51;153440.38;5075068;28;20850;-95
2021/05/06 09:53:23;;;;;;;4.77;3.20;;;;;;;8.08;90.34;153435.22;5059934;28;20548;-94
2021/05/06 09:55:59;;;;;;;5.47;3.30;;;;;;;8.11;92.50;153443.00;5075593;28;20928;-94
2021/05/06 09:58:36;;;;;;;4.20;2.97;;;;;;;8.10;91.53;153439.13;5075502;28;20454;-94
2021/05/06 10:01:11;;;;;;;4.90;3.47;;;;;;;8.24;90.48;153476.59;5074965;28;20438;-92
2021/05/06 10:03:46;;;;;;;6.73;3.47;;;;;;;8.23;88.58;153474.03;5059347;28;20455;-93
2021/05/06 10:06:30;;;;;;;3.60;3.20;;;;;;;8.28;91.78;153487.00;5075250;28;20426;-92
2021/05/06 10:09:06;;;;;;;3.70;3.30;;;;;;;8.23;90.89;153474.03;5094024;28;20536;-94
2021/05/06 10:11:41;;;;;;;3.50;3.10;;;;;;;8.19;92.67;153463.66;5083534;28;20821;-92
2021/05/06 10:14:17;;;;;;;6.13;3.07;;;;;;;8.20;92.99;153464.97;5087667;28;20445;-93
2021/05/06 10:16:52;;;;;;;4.50;3.73;;;;;;;8.21;93.22;153468.81;5099968;28;20466;-92
2021/05/06 10:19:27;;;;;;;5.57;3.33;;;;;;;8.23;96.07;153474.03;5115274;28;20430;-92
2021/05/06 10:22:03;;;;;;;4.60;3.40;;;;;;;8.24;96.04;153475.28;5107922;28;20438;-92
2021/05/06 10:24:40;;;;;;;4.53;3.40;;;;;;;8.25;96.72;153477.88;5073642;28;20442;-92
2021/05/06 10:27:16;;;;;;;4.40;3.13;;;;;;;8.27;97.45;153484.41;5073315;28;20487;-90
2021/05/06 10:29:56;;;;;;;4.23;2.90;;;;;;;8.23;98.27;153474.03;5106391;28;20445;-90
2021/05/06 10:32:33;;;;;;;6.60;2.50;;;;;;;8.19;95.18;153463.66;5054829;28;20810;-91
2021/05/06 10:35:10;;;;;;;5.27;3.07;;;;;;;8.21;97.56;153468.81;5056957;28;20495;-91
2021/05/06 10:37:51;;;;;;;2.70;2.50;;;;;;;8.15;96.16;153452.03;5072952;28;20449;-90
2021/05/06 10:40:28;;;;;;;4.10;2.63;;;;;;;8.13;97.53;153448.13;5107022;28;20540;-90
2021/05/06 10:43:26;;;;;;;3.53;2.40;;;;;;;8.18;95.00;153461.06;5073047;28;20818;-90
2021/05/06 10:46:02;;;;;;;6.17;2.80;;;;;;;8.11;93.94;153441.69;5076502;28;20450;-91
2021/05/06 10:48:57;;;;;;;2.50;2.30;;;;;;;8.09;94.15;153437.81;5062536;28;20548;-90
2021/05/06 10:51:44;;;;;;;3.40;2.23;;;;;;;8.04;94.77;153424.91;5106443;28;20983;-90
2021/05/06 10:54:30;;;;;;;3.73;2.23;;;;;;;8.04;93.35;153424.91;5069683;28;20482;-90
2021/05/06 10:57:27;;;;;;;2.77;1.87;;;;;;;8.13;94.12;153446.88;5071870;28;20454;-90
2021/05/06 11:00:04;;;;;;;3.70;2.50;;;;;;;8.16;92.85;153454.59;5072774;28;20441;-90
2021/05/06 11:02:50;;;;;;;3.23;2.70;;;;;;;8.21;92.30;153468.81;5071584;28;20480;-89
2021/05/06 11:05:27;;;;;;;2.87;2.37;;;;;;;8.25;95.48;153479.19;5045893;28;20805;-89
2021/05/06 11:08:26;;;;;;;3.03;2.00;;;;;;;8.32;93.65;153497.31;5067160;28;20453;-89
2021/05/06 11:11:14;;;;;;;3.10;2.33;;;;;;;8.39;92.56;153515.38;5072352;28;20887;-89
2021/05/06 11:14:06;;;;;;;2.40;2.13;;;;;;;8.39;93.54;153515.38;5056242;28;20451;-90
2021/05/06 11:16:42;;;;;;;2.60;2.03;;;;;;;8.44;91.95;153527.06;5080396;28;20482;-89
2021/05/06 11:19:40;;;;;;;4.33;2.60;;;;;;;8.55;90.92;153556.75;5070015;28;20431;-88
2021/05/06 11:22:52;;;;;;;3.40;2.20;;;;;;;8.61;90.23;153569.69;5071909;28;20450;-89
2021/05/06 11:25:47;;;;;;;2.40;2.20;;;;;;;8.68;91.61;153589.13;5084868;28;20823;-89
2021/05/06 11:28:42;;;;;;;3.07;1.60;;;;;;;8.62;88.98;153572.28;5067244;28;20482;-89
2021/05/06 11:31:46;;;;;;;1.70;1.60;;;;;;;8.69;89.69;153590.38;5104172;28;20471;-89
2021/05/06 11:34:39;;;;;;;2.03;1.80;;;;;;;8.72;89.25;153598.13;5057990;28;20727;-89
2021/05/06 11:37:17;;;;;;;2.37;1.50;;;;;;;8.75;89.75;153605.91;5105447;28;20467;-89
2021/05/06 11:39:55;;;;;;;4.40;1.90;;;;;;;8.73;88.31;153600.72;5071095;28;20445;-89
2021/05/06 11:42:37;;;;;;;2.37;1.60;;;;;;;8.74;86.99;153603.28;5073279;28;20558;-89
2021/05/06 11:45:20;;;;;;;1.90;1.10;;;;;;;8.82;86.72;153623.97;5098198;28;20972;-89
2021/05/06 11:47:57;;;;;;;2.30;1.67;;;;;;;8.77;88.62;153611.06;5071218;28;20473;-88
2021/05/06 11:50:34;;;;;;;1.47;1.37;;;;;;;8.78;89.63;153613.66;5070725;28;20803;-89
2021/05/06 11:53:14;;;;;;;1.67;1.33;;;;;;;8.81;90.69;153621.41;5070222;28;20849;-89
2021/05/06 11:55:49;;;;;;;2.60;1.70;;;;;;;8.84;91.75;153630.44;5101565;28;20521;-89
2021/05/06 11:58:29;;;;;;;1.87;1.73;;;;;;;8.83;90.60;153627.88;5068791;28;20453;-89
2021/05/06 12:01:09;;;;;;;2.00;1.37;;;;;;;8.81;87.02;153621.41;5057216;28;20515;-89
2021/05/06 12:03:46;;;;;;;1.47;1.03;;;;;;;8.83;86.40;153626.59;5083139;28;20446;-89
2021/05/06 12:06:36;;;;;;;1.40;1.30;;;;;;;8.86;86.29;153634.34;5072569;28;20457;-89
2021/05/06 12:09:11;;;;;;;1.70;1.33;;;;;;;8.82;83.89;153625.28;5068754;28;20549;-89
2021/05/06 12:11:47;;;;;;;2.83;1.40;;;;;;;8.89;90.93;153642.13;5076001;28;20459;-89
2021/05/06 12:14:35;;;;;;;1.43;1.23;;;;;;;8.88;86.06;153639.50;5073253;28;20903;-89
2021/05/06 12:17:17;;;;;;;1.67;1.17;;;;;;;8.88;88.00;153639.50;5073483;28;20450;-90
2021/05/06 12:19:53;;;;;;;1.30;1.17;;;;;;;8.88;85.89;153639.50;5056925;28;20441;-90
2021/05/06 12:22:29;;;;;;;2.00;1.53;;;;;;;8.84;84.24;153629.19;5084827;28;20520;-89
2021/05/06 12:25:08;;;;;;;1.50;1.30;;;;;;;8.90;88.30;153645.97;5072637;28;20429;-90
2021/05/06 12:27:43;;;;;;;1.80;1.20;;;;;;;8.89;88.36;153643.41;5073656;28;20584;-90
2021/05/06 12:30:21;;;;;;;2.03;1.37;;;;;;;8.88;86.63;153639.50;5052431;28;20524;-90
2021/05/06 12:32:56;;;;;;;1.50;1.23;;;;;;;8.94;89.50;153656.34;5074256;28;20454;-90
2021/05/06 12:35:32;;;;;;;1.80;1.37;;;;;;;8.97;89.44;153662.81;5074074;28;20454;-90
2021/05/06 12:38:08;;;;;;;2.00;1.80;;;;;;;9.00;89.88;153670.56;5076229;28;20430;-91
2021/05/06 12:40:44;;;;;;;1.77;1.40;;;;;;;8.99;89.61;153669.25;5076693;28;20427;-91
2021/05/06 12:43:30;;;;;;;5.80;1.90;;;;;;;8.95;94.32;153658.91;5076379;28;20556;-92
2021/05/06 12:46:07;;;;;;;2.00;1.80;;;;;;;8.95;94.30;153658.91;5072567;28;20948;-92
2021/05/06 12:49:09;;;;;;;2.50;2.00;;;;;;;8.93;94.00;153652.44;5075475;28;20548;-91
2021/05/06 12:51:47;;;;;;;2.20;1.90;;;;;;;8.97;96.70;153662.81;5069341;28;20467;-92
2021/05/06 12:54:34;;;;;;;1.80;1.60;;;;;;;8.94;95.81;153656.34;5076288;28;20438;-92
2021/05/06 12:57:15;;;;;;;2.07;1.60;;;;;;;8.92;97.52;153649.88;5077657;28;20438;-91
2021/05/06 12:59:50;;;;;;;2.30;1.90;;;;;;;8.90;99.01;153645.97;5116967;28;20468;-92
2021/05/06 13:02:31;;;;;;;2.47;2.00;;;;;;;8.90;98.90;153644.66;5088216;28;20442;-92
2021/05/06 13:05:09;;;;;;;2.40;2.20;;;;;;;8.89;100.00;153642.13;5101137;28;20494;-91
2021/05/06 13:07:50;;;;;;;3.03;1.90;;;;;;;8.85;99.17;153631.75;5083386;28;20453;-92
2021/05/06 13:10:35;;;;;;;2.00;1.80;;;;;;;8.85;100.00;153633.03;5075851;28;20473;-91
2021/05/06 13:13:11;;;;;;;1.97;1.87;;;;;;;8.85;100.00;153631.75;5091933;28;20474;-91
2021/05/06 13:15:53;;;;;;;2.20;2.00;;;;;;;8.83;100.00;153626.59;5076043;28;20434;-91
2021/05/06 13:18:28;;;;;;;2.20;2.00;;;;;;;8.83;100.00;153626.59;5057839;28;20512;-90
2021/05/06 13:21:04;;;;;;;2.50;2.30;;;;;;;8.79;100.00;153617.50;5071215;28;20522;-90
2021/05/06 13:23:42;;;;;;;3.00;1.93;;;;;;;8.72;100.00;153598.13;5097185;28;20439;-91
2021/05/06 13:26:32;;;;;;;3.60;2.00;;;;;;;8.70;100.00;153592.97;5075055;28;20440;-91
2021/05/06 13:29:29;;;;;;;2.10;1.90;;;;;;;8.67;100.00;153585.22;5056141;28;20620;-91
2021/05/06 13:32:05;;;;;;;2.33;2.13;;;;;;;8.57;100.00;153560.66;5075165;28;20498;-91
2021/05/06 13:34:53;;;;;;;3.03;2.50;;;;;;;8.56;100.00;153559.38;5077984;28;20458;-91
2021/05/06 13:37:41;;;;;;;3.00;2.20;;;;;;;8.44;100.00;153528.34;5086692;28;20455;-92
2021/05/06 13:40:16;;;;;;;2.60;2.40;;;;;;;8.48;100.00;153538.69;5108385;28;20474;-91
2021/05/06 13:42:52;;;;;;;2.80;2.60;;;;;;;8.54;100.00;153552.91;5059148;28;20446;-91
2021/05/06 13:45:27;;;;;;;2.57;2.37;;;;;;;8.45;100.00;153529.63;5074980;28;20925;-91
2021/05/06 13:48:02;;;;;;;3.07;2.77;;;;;;;8.45;100.00;153530.91;5075815;28;20454;-91
2021/05/06 13:50:37;;;;;;;2.67;2.47;;;;;;;8.48;100.00;153537.38;5070599;28;20426;-90
2021/05/06 13:53:13;;;;;;;3.27;2.83;;;;;;;8.37;100.00;153510.22;5075373;28;20415;-90
2021/05/06 13:55:48;;;;;;;3.90;2.80;;;;;;;8.40;100.00;153516.69;5073647;28;20442;-90
2021/05/06 13:58:25;;;;;;;4.27;3.43;;;;;;;8.36;100.00;153507.69;5075004;28;20777;-90
2021/05/06 14:01:01;;;;;;;3.87;3.47;;;;;;;8.38;100.00;153512.84;5057872;28;20454;-90
2021/05/06 14:03:37;;;;;;;4.23;3.83;;;;;;;8.33;100.00;153499.91;5073126;28;20442;-90
2021/05/06 14:06:12;;;;;;;3.30;3.00;;;;;;;8.30;100.00;153492.16;5089862;28;20442;-90
2021/05/06 14:08:47;;;;;;;3.20;2.83;;;;;;;8.31;100.00;153493.47;5072449;28;20426;-90
2021/05/06 14:11:25;;;;;;;2.90;2.67;;;;;;;8.34;100.00;153501.22;5073607;28;20983;-90
2021/05/06 14:14:02;;;;;;;4.10;2.80;;;;;;;8.36;100.00;153507.69;5070755;28;20472;-91
2021/05/06 14:16:37;;;;;;;3.60;2.50;;;;;;;8.32;100.00;153496.00;5074224;28;20445;-91
2021/05/06 14:19:13;;;;;;;2.50;2.20;;;;;;;8.41;100.00;153520.59;5073641;28;20474;-91
2021/05/06 14:21:51;;;;;;;3.50;1.90;;;;;;;8.36;100.00;153507.69;5073959;28;20455;-91
2021/05/06 14:24:26;;;;;;;2.53;1.80;;;;;;;8.33;100.00;153498.63;5073019;28;20438;-91
2021/05/06 14:27:01;;;;;;;1.83;1.60;;;;;;;8.32;100.00;153497.31;5071691;28;20445;-91
2021/05/06 14:29:38;;;;;;;1.77;1.40;;;;;;;8.32;100.00;153496.00;5057265;28;20434;-91
2021/05/06 14:32:13;;;;;;;1.90;1.63;;;;;;;8.34;100.00;153502.47;5070380;28;20478;-91
2021/05/06 14:34:48;;;;;;;1.93;1.73;;;;;;;8.32;100.00;153497.31;5070168;28;20452;-91
2021/05/06 14:37:23;;;;;;;3.30;1.63;;;;;;;8.31;100.00;153493.47;5072711;28;20460;-91
2021/05/06 14:39:58;;;;;;;2.20;1.33;;;;;;;8.37;100.00;153508.94;5074182;28;20802;-91
2021/05/06 14:42:34;;;;;;;2.10;1.10;;;;;;;8.26;100.00;153481.75;5074599;28;20438;-91
2021/05/06 14:45:11;;;;;;;1.47;1.00;;;;;;;8.32;100.00;153496.00;5072257;28;20520;-90
2021/05/06 14:47:47;;;;;;;1.00;0.90;;;;;;;8.33;100.00;153498.63;5073008;28;20449;-91